Time;durP1;ratioP1;P1;durP2;ratioP2;P2;SDS_P1;SDS_P2;PMS_P1;PMS_P2;Temp;Humidity;BMP_temperature;BMP_pressure;BME280_temperature;BME280_humidity;BME280_pressure;Samples;Min_cycle;Max_cycle;Signal;HPM_P1;HPM_P2
2023/09/12 04:30:26;;;;;;;0.00;0.00;;;19.30;82.20;;;;;;5924459;23;20418;-82
2023/09/12 04:32:52;;;;;;;0.00;0.00;;;19.30;82.20;;;;;;4958699;28;20031;-84
2023/09/12 04:35:19;;;;;;;0.00;0.00;;;19.20;82.10;;;;;;4957698;29;20031;-78
2023/09/12 04:37:45;;;;;;;0.00;0.00;;;19.20;82.30;;;;;;4976348;28;20035;-80
2023/09/12 04:40:11;;;;;;;0.00;0.00;;;19.20;82.30;;;;;;4973869;28;20047;-80
2023/09/12 04:42:37;;;;;;;0.00;0.00;;;19.20;82.30;;;;;;4930532;29;20384;-80
2023/09/12 04:45:03;;;;;;;0.00;0.00;;;19.20;82.30;;;;;;4939144;29;20039;-80
2023/09/12 04:47:28;;;;;;;0.00;0.00;;;19.20;82.50;;;;;;4938822;29;20027;-80
2023/09/12 04:49:54;;;;;;;0.00;0.00;;;19.20;82.40;;;;;;4964924;28;20390;-84
2023/09/12 04:52:20;;;;;;;0.00;0.00;;;19.20;82.50;;;;;;4969753;28;20878;-81
2023/09/12 04:54:45;;;;;;;0.05;0.05;;;19.20;82.50;;;;;;4938999;29;20111;-84
2023/09/12 04:57:11;;;;;;;0.00;0.00;;;19.20;82.40;;;;;;4921566;29;20030;-79
2023/09/12 04:59:37;;;;;;;0.00;0.00;;;19.20;82.60;;;;;;4936642;29;20034;-80
2023/09/12 05:02:03;;;;;;;0.00;0.00;;;19.20;82.60;;;;;;4930193;29;20431;-79
2023/09/12 05:04:29;;;;;;;0.00;0.00;;;19.20;82.60;;;;;;4940240;29;20031;-82
2023/09/12 05:06:54;;;;;;;0.00;0.00;;;19.20;82.60;;;;;;4952308;28;20023;-81
2023/09/12 05:09:20;;;;;;;0.00;0.00;;;19.20;82.60;;;;;;4957714;29;20042;-81
2023/09/12 05:11:46;;;;;;;0.00;0.00;;;19.20;82.70;;;;;;4939904;29;20062;-82
2023/09/12 05:14:11;;;;;;;0.00;0.00;;;19.20;82.70;;;;;;4953964;29;20097;-81
2023/09/12 05:16:37;;;;;;;0.00;0.00;;;19.20;82.60;;;;;;4942771;29;20039;-86
2023/09/12 05:19:03;;;;;;;0.00;0.00;;;19.20;82.70;;;;;;4938400;29;20039;-80
2023/09/12 05:21:29;;;;;;;0.00;0.00;;;19.20;82.70;;;;;;4938860;29;20106;-85
2023/09/12 05:23:55;;;;;;;0.00;0.00;;;19.20;82.70;;;;;;4943337;29;20043;-79
2023/09/12 05:26:20;;;;;;;0.00;0.00;;;19.30;82.60;;;;;;4936188;29;20118;-78
2023/09/12 05:28:46;;;;;;;0.00;0.00;;;19.30;82.60;;;;;;4939078;29;20035;-78
2023/09/12 05:31:12;;;;;;;0.00;0.00;;;19.20;82.90;;;;;;4949226;29;20086;-78
2023/09/12 05:33:37;;;;;;;0.00;0.00;;;19.20;82.90;;;;;;4954108;29;20042;-78
2023/09/12 05:36:03;;;;;;;0.00;0.00;;;19.10;82.80;;;;;;4954521;29;20031;-78
2023/09/12 05:38:29;;;;;;;0.00;0.00;;;19.10;83.10;;;;;;4950328;29;20032;-78
2023/09/12 05:40:55;;;;;;;0.00;0.00;;;19.10;83.40;;;;;;4950791;28;20084;-78
2023/09/12 05:43:21;;;;;;;0.00;0.00;;;19.10;83.40;;;;;;4958976;28;20027;-77
2023/09/12 05:45:46;;;;;;;0.00;0.00;;;19.10;83.40;;;;;;4939281;29;20055;-78
2023/09/12 05:48:12;;;;;;;0.00;0.00;;;19.00;83.40;;;;;;4938363;29;20036;-78
2023/09/12 05:50:38;;;;;;;0.00;0.00;;;19.00;83.50;;;;;;4938332;29;20070;-78
2023/09/12 05:53:03;;;;;;;0.00;0.00;;;19.00;83.40;;;;;;4938779;29;20079;-78
2023/09/12 05:55:29;;;;;;;0.03;0.03;;;19.00;83.60;;;;;;4942361;29;20029;-78
2023/09/12 05:57:54;;;;;;;0.00;0.00;;;18.90;83.70;;;;;;4954196;29;20023;-78
2023/09/12 06:00:21;;;;;;;0.00;0.00;;;18.90;83.70;;;;;;4961235;29;20395;-78
2023/09/12 06:02:47;;;;;;;0.00;0.00;;;18.90;83.90;;;;;;4954412;29;20038;-78
2023/09/12 06:05:14;;;;;;;0.00;0.00;;;18.80;84.00;;;;;;4942194;29;20483;-78
2023/09/12 06:07:40;;;;;;;0.00;0.00;;;18.80;84.30;;;;;;4942284;29;20051;-77
2023/09/12 06:10:07;;;;;;;0.00;0.00;;;18.80;84.20;;;;;;4941092;29;20142;-78
2023/09/12 06:12:35;;;;;;;0.00;0.00;;;18.90;84.10;;;;;;4924768;29;20491;-77
2023/09/12 06:15:01;;;;;;;0.00;0.00;;;18.90;84.10;;;;;;4941847;29;20020;-78
2023/09/12 06:17:27;;;;;;;0.00;0.00;;;18.90;84.00;;;;;;4942152;29;20036;-78
2023/09/12 06:19:54;;;;;;;0.00;0.00;;;18.80;84.10;;;;;;4941635;29;20039;-78
2023/09/12 06:22:20;;;;;;;0.00;0.00;;;18.80;84.10;;;;;;4940521;29;20034;-77
2023/09/12 06:24:46;;;;;;;0.00;0.00;;;18.80;84.00;;;;;;4946780;29;20019;-77
2023/09/12 06:27:18;;;;;;;0.00;0.00;;;18.90;83.90;;;;;;4943760;29;20033;-77
2023/09/12 06:29:45;;;;;;;0.00;0.00;;;18.90;83.90;;;;;;4952030;28;20038;-77
2023/09/12 06:32:10;;;;;;;0.00;0.00;;;19.00;83.80;;;;;;4946086;29;20043;-76
2023/09/12 06:34:36;;;;;;;0.00;0.00;;;19.00;83.60;;;;;;4956527;29;20091;-77
2023/09/12 06:37:02;;;;;;;0.00;0.00;;;19.00;83.60;;;;;;4937994;29;20109;-78
2023/09/12 06:39:27;;;;;;;0.00;0.00;;;19.00;83.70;;;;;;4945716;28;20031;-77
2023/09/12 06:41:53;;;;;;;0.00;0.00;;;19.10;83.60;;;;;;4951806;28;20394;-77
2023/09/12 06:44:18;;;;;;;0.00;0.00;;;19.10;83.40;;;;;;4970627;28;20019;-77
2023/09/12 06:46:44;;;;;;;0.00;0.00;;;19.10;83.30;;;;;;4968069;28;20054;-77
2023/09/12 06:49:10;;;;;;;0.00;0.00;;;19.20;83.30;;;;;;4969681;28;20032;-77
2023/09/12 06:51:35;;;;;;;0.00;0.00;;;19.20;83.30;;;;;;4969127;28;20035;-77
2023/09/12 06:54:01;;;;;;;0.00;0.00;;;19.20;83.20;;;;;;4961170;28;20070;-80
2023/09/12 06:56:27;;;;;;;0.00;0.00;;;19.30;83.20;;;;;;4961271;28;20026;-77
2023/09/12 06:58:54;;;;;;;0.00;0.00;;;19.30;83.20;;;;;;4967184;28;20018;-77
2023/09/12 07:01:20;;;;;;;0.00;0.00;;;19.30;83.10;;;;;;4970069;28;20030;-77
2023/09/12 07:03:46;;;;;;;0.00;0.00;;;19.30;82.90;;;;;;4968456;28;20019;-77
2023/09/12 07:06:12;;;;;;;0.00;0.00;;;19.40;82.80;;;;;;4949198;28;20031;-77
2023/09/12 07:08:38;;;;;;;0.00;0.00;;;19.40;83.00;;;;;;4968288;28;20107;-77
2023/09/12 07:11:06;;;;;;;0.00;0.00;;;19.40;83.00;;;;;;4970408;28;20483;-77
2023/09/12 07:13:32;;;;;;;0.00;0.00;;;19.40;82.90;;;;;;4969190;28;20055;-77
2023/09/12 07:15:58;;;;;;;0.00;0.00;;;19.40;83.00;;;;;;4967503;28;20035;-77
2023/09/12 07:18:24;;;;;;;0.00;0.00;;;19.40;83.00;;;;;;4969719;28;20030;-77
2023/09/12 07:21:01;;;;;;;0.00;0.00;;;19.50;83.00;;;;;;4968479;28;20027;-77
2023/09/12 07:23:27;;;;;;;0.00;0.00;;;19.50;82.90;;;;;;4968570;28;20026;-77
2023/09/12 07:25:55;;;;;;;0.00;0.00;;;19.50;82.90;;;;;;4968653;28;20399;-77
2023/09/12 07:28:21;;;;;;;0.00;0.00;;;19.50;83.00;;;;;;4967213;28;20089;-77
2023/09/12 07:30:47;;;;;;;0.00;0.00;;;19.50;82.90;;;;;;4965426;28;20055;-77
2023/09/12 07:33:12;;;;;;;0.00;0.00;;;19.50;82.60;;;;;;4970378;28;20086;-77
2023/09/12 07:35:38;;;;;;;0.00;0.00;;;19.50;82.80;;;;;;4950699;28;20059;-77
2023/09/12 07:38:04;;;;;;;0.10;0.10;;;19.50;82.90;;;;;;4949908;28;20035;-77
2023/09/12 07:40:29;;;;;;;0.00;0.00;;;19.50;82.90;;;;;;4966266;28;20035;-77
2023/09/12 07:42:55;;;;;;;0.00;0.00;;;19.40;83.10;;;;;;4937993;29;20035;-77
2023/09/12 07:45:21;;;;;;;0.00;0.00;;;19.50;83.10;;;;;;4940426;29;20031;-77
2023/09/12 07:47:47;;;;;;;0.00;0.00;;;19.60;83.10;;;;;;4927176;29;20032;-77
2023/09/12 07:50:13;;;;;;;0.00;0.00;;;19.70;83.00;;;;;;4956951;29;20117;-77
2023/09/12 07:52:39;;;;;;;0.00;0.00;;;19.80;82.90;;;;;;4941146;29;20035;-77
2023/09/12 07:55:07;;;;;;;0.00;0.00;;;19.80;82.90;;;;;;4938955;29;20039;-78
2023/09/12 07:57:34;;;;;;;0.00;0.00;;;19.80;82.70;;;;;;4941925;29;20468;-77
2023/09/12 08:00:00;;;;;;;0.03;0.03;;;19.90;82.50;;;;;;4939813;29;20063;-77
2023/09/12 08:02:25;;;;;;;0.00;0.00;;;20.00;82.40;;;;;;4946575;29;20027;-77
2023/09/12 08:04:51;;;;;;;0.00;0.00;;;20.00;82.20;;;;;;4946837;29;20027;-77
2023/09/12 08:07:17;;;;;;;0.00;0.00;;;20.00;82.20;;;;;;4939835;29;20051;-77
2023/09/12 08:09:57;;;;;;;0.00;0.00;;;20.00;82.20;;;;;;4929648;29;20063;-77
2023/09/12 08:12:24;;;;;;;0.00;0.00;;;20.00;82.30;;;;;;4940383;29;20534;-77
2023/09/12 08:14:49;;;;;;;0.00;0.00;;;20.00;82.20;;;;;;4922563;29;20101;-77
2023/09/12 08:17:15;;;;;;;0.00;0.00;;;20.00;82.50;;;;;;4939328;29;20032;-77
2023/09/12 08:19:42;;;;;;;0.00;0.00;;;20.00;82.60;;;;;;4939682;29;20042;-77
2023/09/12 08:22:08;;;;;;;0.00;0.00;;;20.00;82.60;;;;;;4939710;29;20024;-77
2023/09/12 08:24:35;;;;;;;0.00;0.00;;;20.10;82.50;;;;;;4945307;29;20106;-77
2023/09/12 08:27:01;;;;;;;0.00;0.00;;;20.10;82.40;;;;;;4929732;29;20028;-77
2023/09/12 08:29:28;;;;;;;0.00;0.00;;;20.10;82.40;;;;;;4939453;29;20091;-77
2023/09/12 08:31:54;;;;;;;0.00;0.00;;;20.20;82.30;;;;;;4942890;29;20062;-78
2023/09/12 08:34:23;;;;;;;0.00;0.00;;;20.20;82.30;;;;;;4941520;29;20035;-77
2023/09/12 08:36:48;;;;;;;0.00;0.00;;;20.30;82.30;;;;;;4941487;29;20062;-77
2023/09/12 08:39:16;;;;;;;0.00;0.00;;;20.30;82.20;;;;;;4939107;29;20707;-77
2023/09/12 08:41:42;;;;;;;0.00;0.00;;;20.40;81.80;;;;;;4941733;28;20028;-77
2023/09/12 08:44:09;;;;;;;0.00;0.00;;;20.40;81.70;;;;;;4939423;29;20028;-77
2023/09/12 08:46:36;;;;;;;0.00;0.00;;;20.60;81.70;;;;;;4922172;29;20034;-78
2023/09/12 08:49:05;;;;;;;0.00;0.00;;;20.70;81.40;;;;;;4936331;29;20043;-77
2023/09/12 08:51:32;;;;;;;0.00;0.00;;;20.80;81.20;;;;;;4950832;29;20043;-77
2023/09/12 08:53:58;;;;;;;0.00;0.00;;;21.00;81.00;;;;;;4938331;29;20032;-78
2023/09/12 08:56:24;;;;;;;0.10;0.10;;;21.20;80.80;;;;;;4938797;29;20027;-77
2023/09/12 08:58:51;;;;;;;0.00;0.00;;;21.50;80.50;;;;;;4938258;29;20096;-77
2023/09/12 09:01:19;;;;;;;0.00;0.00;;;21.70;79.60;;;;;;4938554;29;20053;-77
2023/09/12 09:03:45;;;;;;;0.00;0.00;;;21.90;79.00;;;;;;4955995;29;20391;-77
2023/09/12 09:06:12;;;;;;;0.00;0.00;;;22.10;78.70;;;;;;4958120;29;20122;-77
2023/09/12 09:08:39;;;;;;;0.00;0.00;;;22.10;78.30;;;;;;4958016;29;20461;-77
2023/09/12 09:11:08;;;;;;;0.00;0.00;;;22.20;78.20;;;;;;4950866;29;20519;-77
2023/09/12 09:13:33;;;;;;;0.00;0.00;;;22.30;77.60;;;;;;4937415;29;20035;-77
2023/09/12 09:16:21;;;;;;;0.00;0.00;;;22.30;77.40;;;;;;4938581;29;20042;-77
2023/09/12 09:18:58;;;;;;;0.00;0.00;;;22.60;76.90;;;;;;4938660;29;20369;-77
2023/09/12 09:21:26;;;;;;;0.10;0.10;;;22.80;76.70;;;;;;4928980;29;20038;-77
2023/09/12 09:23:55;;;;;;;0.00;0.00;;;23.00;75.50;;;;;;4938672;29;20020;-77
2023/09/12 09:26:22;;;;;;;0.00;0.00;;;23.20;74.90;;;;;;4957681;29;20026;-77
2023/09/12 09:29:08;;;;;;;0.00;0.00;;;23.30;75.10;;;;;;4936738;29;20043;-77
2023/09/12 09:31:34;;;;;;;0.10;0.10;;;23.20;74.60;;;;;;4932724;29;20459;-77
2023/09/12 09:34:01;;;;;;;0.00;0.00;;;23.30;74.10;;;;;;4938547;29;20453;-77
2023/09/12 09:36:28;;;;;;;0.10;0.10;;;23.30;73.60;;;;;;4937175;29;20051;-77
2023/09/12 09:38:56;;;;;;;0.00;0.00;;;23.30;73.30;;;;;;4937347;29;20032;-77
2023/09/12 09:41:22;;;;;;;0.00;0.00;;;23.30;73.00;;;;;;4953239;28;20122;-77
2023/09/12 09:43:52;;;;;;;0.00;0.00;;;23.30;72.70;;;;;;4940108;29;20118;-77
2023/09/12 09:46:18;;;;;;;0.00;0.00;;;23.30;72.70;;;;;;4957406;29;20058;-77
2023/09/12 09:48:51;;;;;;;0.00;0.00;;;23.30;72.70;;;;;;4957580;29;20028;-77
2023/09/12 09:51:16;;;;;;;;;;;23.10;72.90;;;;;;4936782;29;20036;-77
2023/09/12 09:53:43;;;;;;;0.00;0.00;;;23.10;72.90;;;;;;4938402;29;20263;-77
2023/09/12 09:56:13;;;;;;;0.00;0.00;;;23.20;73.10;;;;;;4936721;29;20538;-77
2023/09/12 09:58:53;;;;;;;0.00;0.00;;;23.20;73.20;;;;;;4943140;29;20086;-77
2023/09/12 10:01:27;;;;;;;0.00;0.00;;;23.30;73.10;;;;;;4953853;28;20027;-77
2023/09/12 10:03:57;;;;;;;0.00;0.00;;;23.40;73.10;;;;;;4944953;29;20035;-77
2023/09/12 10:06:23;;;;;;;0.00;0.00;;;23.60;73.00;;;;;;4938448;29;20024;-77
2023/09/12 10:08:53;;;;;;;0.00;0.00;;;23.60;72.00;;;;;;4938292;29;20137;-77
2023/09/12 10:11:23;;;;;;;0.00;0.00;;;23.60;72.20;;;;;;4938563;29;20059;-77
2023/09/12 10:13:56;;;;;;;0.00;0.00;;;23.50;72.70;;;;;;4937931;29;20040;-77
2023/09/12 10:16:30;;;;;;;0.00;0.00;;;23.60;72.30;;;;;;4941787;28;20071;-77
2023/09/12 10:19:10;;;;;;;0.00;0.00;;;23.60;71.80;;;;;;4953634;29;20027;-77
2023/09/12 10:21:37;;;;;;;0.00;0.00;;;23.60;72.10;;;;;;4951402;29;20023;-77
2023/09/12 10:24:07;;;;;;;0.00;0.00;;;23.60;72.20;;;;;;4938856;29;20503;-77
2023/09/12 10:26:34;;;;;;;0.00;0.00;;;23.60;72.40;;;;;;4957238;29;20110;-77
2023/09/12 10:29:02;;;;;;;0.00;0.00;;;23.60;72.50;;;;;;4957116;29;20112;-77
2023/09/12 10:31:28;;;;;;;0.00;0.00;;;23.60;72.30;;;;;;4941669;29;20048;-77
2023/09/12 10:33:54;;;;;;;0.00;0.00;;;23.60;72.40;;;;;;4956274;29;20043;-77
2023/09/12 10:36:22;;;;;;;0.00;0.00;;;23.80;72.40;;;;;;4938054;29;20039;-77
2023/09/12 10:38:49;;;;;;;0.00;0.00;;;23.80;72.30;;;;;;4937949;29;20451;-77
2023/09/12 10:41:16;;;;;;;0.00;0.00;;;23.90;71.90;;;;;;4949082;28;20031;-77
2023/09/12 10:43:46;;;;;;;0.00;0.00;;;23.90;70.60;;;;;;4941455;29;20570;-77
2023/09/12 10:46:12;;;;;;;0.00;0.00;;;24.00;71.10;;;;;;4926261;29;20031;-77
2023/09/12 10:48:40;;;;;;;0.03;0.03;;;24.20;69.90;;;;;;4941378;29;20475;-77
2023/09/12 10:51:07;;;;;;;0.00;0.00;;;24.30;69.20;;;;;;4940094;29;20032;-77
2023/09/12 10:53:33;;;;;;;0.00;0.00;;;24.40;68.90;;;;;;4924703;29;20060;-77
2023/09/12 10:56:08;;;;;;;0.00;0.00;;;24.50;68.20;;;;;;4941402;29;20060;-77
2023/09/12 10:58:53;;;;;;;0.00;0.00;;;24.60;69.10;;;;;;4941452;29;20063;-77
2023/09/12 11:01:26;;;;;;;0.00;0.00;;;24.70;68.80;;;;;;4923679;29;20039;-77
2023/09/12 11:03:52;;;;;;;0.00;0.00;;;24.80;68.40;;;;;;4959386;29;20098;-77
2023/09/12 11:06:30;;;;;;;0.00;0.00;;;24.80;68.20;;;;;;4942880;29;20130;-77
2023/09/12 11:09:15;;;;;;;0.00;0.00;;;24.80;67.60;;;;;;4949582;29;20032;-77
2023/09/12 11:11:48;;;;;;;0.00;0.00;;;24.80;68.40;;;;;;4941036;29;20036;-77
2023/09/12 11:14:16;;;;;;;0.00;0.00;;;24.80;67.80;;;;;;4941491;29;20369;-77
2023/09/12 11:16:43;;;;;;;0.00;0.00;;;24.70;67.20;;;;;;4940616;29;20095;-77
2023/09/12 11:19:16;;;;;;;0.00;0.00;;;24.50;67.50;;;;;;4924000;29;20119;-77
2023/09/12 11:21:52;;;;;;;0.00;0.00;;;24.40;67.30;;;;;;4940874;29;20110;-78
2023/09/12 11:24:19;;;;;;;0.00;0.00;;;24.30;66.70;;;;;;4943703;29;20522;-77
2023/09/12 11:26:54;;;;;;;0.20;0.00;;;24.10;66.90;;;;;;4959675;29;20724;-77
2023/09/12 11:29:20;;;;;;;0.00;0.00;;;24.00;67.60;;;;;;4942811;29;20118;-77
2023/09/12 11:31:59;;;;;;;0.00;0.00;;;23.90;68.00;;;;;;4955630;29;20055;-77
2023/09/12 11:34:27;;;;;;;0.00;0.00;;;24.00;68.20;;;;;;4959833;29;20078;-77
2023/09/12 11:36:56;;;;;;;0.00;0.00;;;24.00;68.90;;;;;;4956319;29;20051;-77
2023/09/12 11:39:27;;;;;;;0.00;0.00;;;24.10;68.10;;;;;;4940469;29;20028;-77
2023/09/12 11:41:55;;;;;;;0.00;0.00;;;24.30;68.20;;;;;;4965555;28;20027;-77
2023/09/12 11:44:21;;;;;;;0.00;0.00;;;24.30;68.20;;;;;;4959628;29;20031;-77
2023/09/12 11:46:49;;;;;;;0.00;0.00;;;24.50;67.20;;;;;;4954222;29;20038;-77
2023/09/12 11:49:15;;;;;;;0.00;0.00;;;24.60;67.30;;;;;;4955658;29;20054;-77
2023/09/12 11:51:52;;;;;;;0.00;0.00;;;24.80;66.80;;;;;;4923311;29;20036;-77
2023/09/12 11:54:19;;;;;;;0.00;0.00;;;24.80;66.70;;;;;;4940459;29;20027;-78
2023/09/12 11:56:47;;;;;;;0.00;0.00;;;24.80;66.40;;;;;;4923036;29;20035;-77
2023/09/12 11:59:13;;;;;;;0.00;0.00;;;24.70;66.20;;;;;;4923049;29;20031;-77
2023/09/12 12:01:39;;;;;;;0.00;0.00;;;24.60;66.90;;;;;;4952987;29;20061;-77
2023/09/12 12:04:06;;;;;;;0.00;0.00;;;24.50;67.10;;;;;;4959182;29;20019;-77
2023/09/12 12:06:32;;;;;;;0.00;0.00;;;24.50;67.20;;;;;;4938074;29;20038;-77
2023/09/12 12:08:58;;;;;;;0.00;0.00;;;24.70;67.50;;;;;;4939880;29;20546;-77
2023/09/12 12:11:28;;;;;;;0.00;0.00;;;24.80;67.00;;;;;;4938646;29;20051;-77
2023/09/12 12:13:53;;;;;;;0.00;0.00;;;24.90;66.70;;;;;;4939812;29;20032;-77
2023/09/12 12:16:19;;;;;;;0.00;0.00;;;25.00;64.50;;;;;;4939755;29;20105;-77
2023/09/12 12:18:45;;;;;;;0.00;0.00;;;25.10;64.00;;;;;;4939938;29;20035;-77
2023/09/12 12:21:11;;;;;;;0.00;0.00;;;25.20;63.30;;;;;;4922984;29;20031;-77
2023/09/12 12:23:36;;;;;;;0.00;0.00;;;25.00;63.80;;;;;;4939568;29;20056;-77
2023/09/12 12:26:10;;;;;;;0.00;0.00;;;25.00;64.10;;;;;;4951734;29;20048;-77
2023/09/12 12:28:36;;;;;;;0.00;0.00;;;25.10;63.60;;;;;;4922215;29;20060;-77
2023/09/12 12:31:02;;;;;;;0.00;0.00;;;25.10;63.30;;;;;;4934794;29;20512;-77
2023/09/12 12:33:28;;;;;;;0.00;0.00;;;25.20;63.80;;;;;;4934899;29;20079;-77
2023/09/12 12:36:04;;;;;;;0.00;0.00;;;25.40;64.40;;;;;;4939414;29;20039;-77
2023/09/12 12:38:38;;;;;;;0.00;0.00;;;25.70;63.40;;;;;;4924202;29;20087;-77
2023/09/12 12:41:04;;;;;;;0.00;0.00;;;25.80;62.90;;;;;;4944156;29;20016;-77
2023/09/12 12:43:30;;;;;;;0.00;0.00;;;25.80;62.00;;;;;;4958388;29;20046;-77
2023/09/12 12:45:58;;;;;;;0.03;0.03;;;25.80;62.60;;;;;;4957277;29;20031;-77
2023/09/12 12:48:34;;;;;;;0.00;0.00;;;25.60;62.50;;;;;;4929024;28;20028;-77
2023/09/12 12:51:19;;;;;;;0.08;0.00;;;25.40;63.00;;;;;;4919291;29;20028;-77
2023/09/12 12:53:47;;;;;;;0.00;0.00;;;25.30;63.20;;;;;;4920131;29;20028;-77
2023/09/12 12:56:15;;;;;;;0.00;0.00;;;25.40;63.90;;;;;;4920465;29;20064;-77
2023/09/12 12:59:04;;;;;;;0.00;0.00;;;25.60;63.60;;;;;;4918979;29;20064;-77
2023/09/12 13:01:31;;;;;;;0.00;0.00;;;25.70;63.90;;;;;;4918519;29;20020;-78
2023/09/12 13:03:56;;;;;;;0.00;0.00;;;25.80;63.40;;;;;;4952786;29;20028;-77
2023/09/12 13:06:22;;;;;;;0.00;0.00;;;26.00;63.20;;;;;;4921551;29;20039;-77
2023/09/12 13:08:49;;;;;;;0.00;0.00;;;25.80;62.50;;;;;;4934397;29;20361;-77
2023/09/12 13:11:16;;;;;;;0.10;0.05;;;25.90;63.00;;;;;;4920256;29;20038;-76
2023/09/12 13:13:42;;;;;;;0.00;0.00;;;26.00;61.30;;;;;;4920077;29;20036;-77
2023/09/12 13:16:13;;;;;;;0.00;0.00;;;26.10;61.10;;;;;;4919914;29;20039;-76
2023/09/12 13:18:39;;;;;;;0.08;0.08;;;26.20;59.50;;;;;;4918589;29;20523;-77
2023/09/12 13:21:06;;;;;;;0.00;0.00;;;26.20;58.80;;;;;;4919756;29;20036;-77
2023/09/12 13:23:35;;;;;;;0.00;0.00;;;26.10;59.60;;;;;;4918288;29;20396;-77
2023/09/12 13:26:00;;;;;;;0.00;0.00;;;26.00;59.30;;;;;;4927118;29;20378;-77
2023/09/12 13:28:26;;;;;;;0.00;0.00;;;26.20;59.40;;;;;;4919637;29;20096;-77
2023/09/12 13:30:52;;;;;;;0.00;0.00;;;26.30;57.50;;;;;;4925485;29;20048;-77
2023/09/12 13:33:18;;;;;;;0.00;0.00;;;26.20;58.30;;;;;;4951881;29;20027;-77
2023/09/12 13:35:44;;;;;;;0.00;0.00;;;25.90;58.20;;;;;;4936856;29;20121;-77
2023/09/12 13:38:09;;;;;;;0.00;0.00;;;25.70;58.40;;;;;;4945114;29;20542;-77
2023/09/12 13:40:39;;;;;;;0.00;0.00;;;25.50;59.50;;;;;;4962248;28;20031;-77
2023/09/12 13:43:06;;;;;;;0.00;0.00;;;25.30;58.60;;;;;;4959357;28;20077;-77
2023/09/12 13:45:32;;;;;;;0.00;0.00;;;25.20;59.20;;;;;;4950240;29;20051;-77
2023/09/12 13:47:59;;;;;;;0.00;0.00;;;25.20;60.60;;;;;;4938219;29;20451;-77
2023/09/12 13:50:26;;;;;;;0.00;0.00;;;25.10;61.20;;;;;;4940665;29;20521;-77
2023/09/12 13:52:53;;;;;;;0.00;0.00;;;24.90;62.60;;;;;;4938269;29;20511;-77
2023/09/12 13:55:19;;;;;;;0.00;0.00;;;24.90;63.40;;;;;;4938788;29;20043;-77
2023/09/12 13:57:44;;;;;;;0.00;0.00;;;24.80;64.20;;;;;;4938611;29;20044;-78
2023/09/12 14:00:10;;;;;;;0.00;0.00;;;24.90;64.50;;;;;;4955180;29;20032;-77
2023/09/12 14:02:36;;;;;;;0.00;0.00;;;25.00;64.50;;;;;;4954299;29;20443;-77
2023/09/12 14:05:01;;;;;;;0.00;0.00;;;24.90;64.30;;;;;;4951318;29;20040;-77
2023/09/12 14:07:27;;;;;;;0.00;0.00;;;24.90;64.60;;;;;;4938223;29;20039;-77
2023/09/12 14:09:55;;;;;;;0.00;0.00;;;25.10;64.50;;;;;;4920812;29;20039;-77
2023/09/12 14:12:22;;;;;;;0.00;0.00;;;25.30;64.10;;;;;;4938185;29;20032;-77
2023/09/12 14:14:48;;;;;;;0.00;0.00;;;25.40;63.40;;;;;;4939993;29;20028;-77
2023/09/12 14:17:14;;;;;;;0.00;0.00;;;25.50;63.00;;;;;;4942489;29;20035;-77
2023/09/12 14:19:39;;;;;;;0.00;0.00;;;25.60;61.80;;;;;;4940289;29;20048;-77
2023/09/12 14:22:05;;;;;;;0.00;0.00;;;25.50;62.70;;;;;;4942390;29;20118;-77
2023/09/12 14:24:31;;;;;;;0.00;0.00;;;25.60;62.80;;;;;;4946441;29;20023;-77
2023/09/12 14:26:56;;;;;;;0.00;0.00;;;25.80;60.70;;;;;;4940286;29;20491;-77
2023/09/12 14:29:23;;;;;;;0.00;0.00;;;26.00;61.00;;;;;;4941531;29;20039;-77
2023/09/12 14:31:50;;;;;;;0.00;0.00;;;25.90;60.20;;;;;;4943318;29;20055;-77
2023/09/12 14:34:16;;;;;;;0.00;0.00;;;26.00;59.30;;;;;;4940341;29;20055;-77
2023/09/12 14:36:42;;;;;;;0.00;0.00;;;26.10;59.80;;;;;;4941778;29;20035;-77
2023/09/12 14:39:07;;;;;;;0.00;0.00;;;26.10;58.20;;;;;;4941276;29;20035;-77
2023/09/12 14:41:33;;;;;;;0.00;0.00;;;25.90;58.70;;;;;;4974513;28;20086;-77
2023/09/12 14:43:59;;;;;;;0.00;0.00;;;25.80;58.20;;;;;;4955710;28;20030;-77
2023/09/12 14:46:24;;;;;;;0.00;0.00;;;25.70;59.50;;;;;;4941839;29;20443;-77
2023/09/12 14:48:50;;;;;;;0.00;0.00;;;25.60;59.90;;;;;;4941150;29;20035;-77
2023/09/12 14:51:16;;;;;;;0.00;0.00;;;25.50;60.20;;;;;;4941371;29;20020;-77
2023/09/12 14:53:44;;;;;;;0.00;0.00;;;25.60;60.50;;;;;;4941780;29;20059;-77
2023/09/12 14:56:13;;;;;;;0.00;0.00;;;25.50;61.30;;;;;;4941625;29;20028;-77
2023/09/12 14:58:38;;;;;;;0.00;0.00;;;25.50;61.30;;;;;;4923768;29;20047;-76
2023/09/12 15:01:04;;;;;;;0.00;0.00;;;25.60;61.70;;;;;;4941144;29;20472;-77
2023/09/12 15:03:30;;;;;;;0.00;0.00;;;25.80;60.80;;;;;;4942074;29;20028;-77
2023/09/12 15:05:56;;;;;;;0.00;0.00;;;25.90;60.70;;;;;;4941399;29;20506;-77
2023/09/12 15:08:21;;;;;;;0.00;0.00;;;26.00;60.00;;;;;;4941097;29;20487;-77
2023/09/12 15:10:47;;;;;;;0.00;0.00;;;25.80;59.60;;;;;;4939536;29;20036;-77
2023/09/12 15:13:14;;;;;;;0.00;0.00;;;25.80;59.30;;;;;;4939901;29;20067;-77
2023/09/12 15:15:40;;;;;;;0.00;0.00;;;25.70;60.10;;;;;;4941391;29;20027;-77
2023/09/12 15:18:05;;;;;;;0.00;0.00;;;25.70;59.90;;;;;;4923314;29;20035;-77
2023/09/12 15:20:32;;;;;;;0.00;0.00;;;25.80;59.70;;;;;;4959964;29;20031;-77
2023/09/12 15:22:57;;;;;;;0.00;0.00;;;25.70;59.90;;;;;;4960176;29;20024;-77
2023/09/12 15:25:23;;;;;;;0.00;0.00;;;25.80;58.90;;;;;;4942300;29;20103;-77
2023/09/12 15:27:49;;;;;;;0.00;0.00;;;25.80;58.70;;;;;;4938741;29;20031;-79
2023/09/12 15:30:14;;;;;;;0.00;0.00;;;25.80;58.90;;;;;;4940503;29;20598;-79
2023/09/12 15:32:40;;;;;;;0.00;0.00;;;25.60;58.90;;;;;;4949145;29;20031;-77
2023/09/12 15:35:07;;;;;;;0.00;0.00;;;25.30;58.20;;;;;;4938473;29;20091;-79
2023/09/12 15:37:33;;;;;;;0.00;0.00;;;25.30;58.10;;;;;;4940525;29;20495;-78
2023/09/12 15:39:58;;;;;;;0.00;0.00;;;25.30;58.70;;;;;;4931001;28;20342;-78
2023/09/12 15:42:24;;;;;;;0.00;0.00;;;25.20;58.90;;;;;;4979037;28;20027;-78
2023/09/12 15:44:50;;;;;;;0.00;0.00;;;25.10;59.40;;;;;;4950628;28;20106;-78
2023/09/12 15:47:16;;;;;;;0.00;0.00;;;24.90;60.20;;;;;;4948011;29;20028;-78
2023/09/12 15:49:42;;;;;;;0.00;0.00;;;24.90;60.90;;;;;;4959487;28;20023;-79
2023/09/12 15:52:07;;;;;;;0.00;0.00;;;24.80;60.50;;;;;;4942982;29;20083;-78
2023/09/12 15:54:33;;;;;;;0.00;0.00;;;24.70;61.10;;;;;;4938902;29;20392;-78
2023/09/12 15:56:58;;;;;;;0.00;0.00;;;24.60;61.80;;;;;;4938511;29;20146;-78
2023/09/12 15:59:25;;;;;;;0.00;0.00;;;24.60;61.60;;;;;;4940089;29;20024;-78
2023/09/12 16:01:51;;;;;;;0.00;0.00;;;24.50;61.80;;;;;;4942334;28;20116;-78
2023/09/12 16:04:16;;;;;;;0.00;0.00;;;24.60;62.30;;;;;;4958735;29;20027;-78
2023/09/12 16:06:43;;;;;;;0.00;0.00;;;24.30;62.30;;;;;;4937146;29;20114;-78
2023/09/12 16:09:09;;;;;;;0.00;0.00;;;24.30;62.70;;;;;;4959152;29;20051;-78
2023/09/12 16:11:35;;;;;;;0.00;0.00;;;24.30;62.90;;;;;;4942943;29;20028;-78
2023/09/12 16:14:01;;;;;;;0.00;0.00;;;24.20;62.30;;;;;;4940500;29;20035;-78
2023/09/12 16:16:26;;;;;;;0.00;0.00;;;24.10;62.70;;;;;;4939522;29;20027;-78
2023/09/12 16:18:52;;;;;;;0.00;0.00;;;24.10;63.00;;;;;;4950969;28;20031;-78
2023/09/12 16:21:18;;;;;;;0.00;0.00;;;24.20;63.50;;;;;;4953186;29;20050;-79
2023/09/12 16:23:44;;;;;;;0.00;0.00;;;24.20;64.50;;;;;;4963828;28;20082;-80
2023/09/12 16:26:10;;;;;;;0.00;0.00;;;24.20;64.80;;;;;;4966697;28;20042;-80
2023/09/12 16:28:35;;;;;;;0.00;0.00;;;24.20;64.90;;;;;;4969136;28;20118;-82
2023/09/12 16:31:01;;;;;;;0.00;0.00;;;24.30;65.30;;;;;;4966546;28;20047;-79
2023/09/12 16:33:27;;;;;;;0.05;0.05;;;24.30;64.80;;;;;;4967287;28;20031;-79
2023/09/12 16:35:54;;;;;;;0.00;0.00;;;24.40;64.60;;;;;;4950306;28;20031;-79
2023/09/12 16:38:19;;;;;;;0.00;0.00;;;24.50;64.60;;;;;;4947185;28;20549;-78
2023/09/12 16:40:48;;;;;;;0.00;0.00;;;24.60;64.40;;;;;;4948386;28;20121;-79
2023/09/12 16:43:13;;;;;;;0.00;0.00;;;24.60;64.40;;;;;;4958399;28;20504;-79
2023/09/12 16:45:39;;;;;;;0.00;0.00;;;24.60;64.70;;;;;;4954428;28;20024;-79
2023/09/12 16:48:06;;;;;;;0.00;0.00;;;24.60;64.80;;;;;;4938705;29;20024;-79
2023/09/12 16:50:31;;;;;;;0.00;0.00;;;24.50;65.20;;;;;;4937958;29;20027;-79
2023/09/12 16:52:57;;;;;;;0.00;0.00;;;24.30;65.60;;;;;;4938968;29;20075;-79
2023/09/12 16:55:25;;;;;;;0.00;0.00;;;24.20;66.00;;;;;;4953537;28;20094;-81
2023/09/12 16:57:51;;;;;;;0.00;0.00;;;24.00;66.30;;;;;;4959529;28;20494;-79
2023/09/12 17:00:17;;;;;;;0.08;0.03;;;23.80;66.80;;;;;;4966739;28;20031;-79
2023/09/12 17:02:43;;;;;;;0.00;0.00;;;23.60;67.60;;;;;;4952596;28;20452;-79
2023/09/12 17:05:10;;;;;;;0.00;0.00;;;23.60;67.50;;;;;;4940682;29;20031;-79
2023/09/12 17:07:36;;;;;;;0.00;0.00;;;23.50;67.90;;;;;;4940553;29;20023;-78
2023/09/12 17:10:02;;;;;;;0.00;0.00;;;23.40;68.00;;;;;;4957654;29;20039;-78
2023/09/12 17:12:28;;;;;;;0.00;0.00;;;23.40;68.20;;;;;;4934634;29;20497;-78
2023/09/12 17:14:53;;;;;;;0.00;0.00;;;23.50;68.10;;;;;;4956835;29;20545;-79
2023/09/12 17:17:19;;;;;;;0.00;0.00;;;23.50;68.00;;;;;;4938884;29;20028;-78